createdAt,value
2019-01-24T00:01:04.015Z,29.15
2019-01-24T00:03:33.095Z,23.60
2019-01-24T00:06:02.188Z,30.48
2019-01-24T00:08:31.266Z,26.30
2019-01-24T00:11:00.345Z,31.52
2019-01-24T00:13:29.436Z,30.42
2019-01-24T00:18:45.096Z,31.73
2019-01-24T00:21:23.299Z,33.75
2019-01-24T00:24:03.378Z,29.60
2019-01-24T00:26:32.491Z,35.85
2019-01-24T00:29:01.585Z,28.90
2019-01-24T00:31:31.588Z,35.60
2019-01-24T00:34:06.324Z,34.25
2019-01-24T00:36:50.010Z,25.17
2019-01-24T00:39:19.186Z,33.25
2019-01-24T00:41:51.456Z,25.40
2019-01-24T00:44:20.795Z,30.35
2019-01-24T00:51:07.931Z,31.73
2019-01-24T00:53:38.894Z,32.60
2019-01-24T00:56:11.518Z,26.40
2019-01-24T01:01:16.315Z,31.23
2019-01-24T01:04:16.496Z,31.67
2019-01-24T01:09:23.298Z,31.67
2019-01-24T01:11:52.375Z,31.75
2019-01-24T01:14:21.543Z,32.33
2019-01-24T01:16:50.619Z,26.20
2019-01-24T01:19:19.690Z,32.38
2019-01-24T01:21:48.763Z,28.57
2019-01-24T01:24:17.825Z,31.12
2019-01-24T01:27:15.300Z,34.22
2019-01-24T01:29:44.459Z,26.17
2019-01-24T01:32:16.767Z,31.33
2019-01-24T01:35:15.465Z,33.90
2019-01-24T01:40:47.933Z,33.80
2019-01-24T01:43:17.018Z,33.05
2019-01-24T01:45:58.901Z,35.50
2019-01-24T01:48:28.060Z,25.63
2019-01-24T01:51:16.356Z,33.03
2019-01-24T01:56:30.043Z,35.20
2019-01-24T01:59:13.142Z,33.67
2019-01-24T02:02:06.383Z,26.30
2019-01-24T02:04:35.465Z,34.10
2019-01-24T02:09:48.185Z,33.57
2019-01-24T02:12:17.289Z,28.80
2019-01-24T02:14:46.347Z,35.35
2019-01-24T02:17:16.320Z,26.40
2019-01-24T02:20:00.588Z,33.38
2019-01-24T02:22:29.644Z,33.50
2019-01-24T02:24:58.821Z,28.60
2019-01-24T02:27:28.384Z,33.72
2019-01-24T02:30:18.753Z,26.10
2019-01-24T02:32:47.812Z,34.35
2019-01-24T02:35:16.866Z,26.97
2019-01-24T02:38:08.595Z,33.13
2019-01-24T02:40:38.597Z,26.70
2019-01-24T02:43:07.689Z,33.45
2019-01-24T02:45:38.720Z,34.10
2019-01-24T02:48:12.238Z,28.60
2019-01-24T02:50:41.421Z,33.35
2019-01-24T02:55:46.241Z,33.92
2019-01-24T02:58:20.603Z,36.90
2019-01-24T03:00:49.691Z,27.13
2019-01-24T03:03:19.763Z,35.28
2019-01-24T03:05:48.906Z,30.17
2019-01-24T03:08:18.956Z,34.72
2019-01-24T03:14:10.463Z,32.17
2019-01-24T03:16:39.543Z,34.10
2019-01-24T03:19:08.650Z,34.20
2019-01-24T03:21:37.723Z,26.63
2019-01-24T03:24:06.811Z,30.77
2019-01-24T03:31:49.289Z,34.10
2019-01-24T03:34:18.373Z,35.17
2019-01-24T03:36:47.452Z,29.03
2019-01-24T03:42:02.898Z,32.27
2019-01-24T03:44:39.123Z,35.72
2019-01-24T03:47:08.195Z,26.77
2019-01-24T03:49:49.927Z,32.83
2019-01-24T03:52:19.042Z,26.63
2019-01-24T03:54:48.119Z,33.05
2019-01-24T03:57:17.200Z,25.83
2019-01-24T04:05:12.268Z,33.77
2019-01-24T04:07:52.622Z,34.78
2019-01-24T04:10:21.698Z,27.70
2019-01-24T04:12:52.746Z,32.72
2019-01-24T04:15:22.755Z,26.63
2019-01-24T04:20:27.565Z,34.70
2019-01-24T04:22:58.551Z,27.50
2019-01-24T04:25:27.611Z,35.60
2019-01-24T04:27:59.710Z,36.45
2019-01-24T04:30:32.340Z,33.78
2019-01-24T04:33:03.342Z,29.43
2019-01-24T04:38:08.745Z,36.10
2019-01-24T04:40:37.819Z,36.50
2019-01-24T04:43:06.936Z,36.42
2019-01-24T04:45:49.739Z,28.40
2019-01-24T04:48:18.808Z,34.10
2019-01-24T04:53:26.537Z,33.00
2019-01-24T04:55:55.649Z,36.17
2019-01-24T04:58:25.625Z,28.50
2019-01-24T05:00:54.689Z,34.58
2019-01-24T05:03:34.496Z,33.90
2019-01-24T05:06:03.576Z,29.40
2019-01-24T05:08:33.614Z,36.75
2019-01-24T05:11:02.678Z,29.40
2019-01-24T05:13:35.722Z,34.30
2019-01-24T05:16:05.722Z,34.75
2019-01-24T05:21:12.463Z,35.20
2019-01-24T05:23:56.863Z,35.80
2019-01-24T05:26:39.151Z,28.30
2019-01-24T05:29:08.231Z,35.13
2019-01-24T05:31:37.296Z,35.57
2019-01-24T05:34:07.280Z,38.72
2019-01-24T05:39:14.058Z,35.43
2019-01-24T05:44:20.002Z,36.70
2019-01-24T05:46:49.059Z,30.80
2019-01-24T05:49:18.161Z,36.13
2019-01-24T05:51:50.246Z,30.80
2019-01-24T05:54:21.712Z,36.33
2019-01-24T05:56:52.690Z,37.45
2019-01-24T05:59:21.743Z,31.37
2019-01-24T06:04:29.543Z,40.90
2019-01-24T06:06:58.633Z,29.93
2019-01-24T06:09:28.489Z,38.13
2019-01-24T06:12:01.009Z,32.00
2019-01-24T06:14:35.761Z,36.95
2019-01-24T06:17:04.812Z,38.87
2019-01-24T06:19:34.781Z,34.23
2019-01-24T06:22:04.690Z,36.88
2019-01-24T06:24:51.436Z,30.43
2019-01-24T06:27:20.880Z,38.08
2019-01-24T06:29:51.955Z,30.70
2019-01-24T06:32:21.103Z,39.25
2019-01-24T06:35:02.729Z,39.28
2019-01-24T06:37:31.789Z,30.57
2019-01-24T06:40:02.872Z,38.38
2019-01-24T06:42:35.130Z,31.57
2019-01-24T06:45:04.198Z,39.83
2019-01-24T06:47:35.219Z,32.50
2019-01-24T06:50:04.300Z,40.60
2019-01-24T06:52:33.401Z,34.00
2019-01-24T06:55:07.869Z,38.58
2019-01-24T06:57:36.932Z,33.43
2019-01-24T07:00:06.717Z,38.58
2019-01-24T07:02:35.771Z,38.85
2019-01-24T07:05:04.835Z,30.33
2019-01-24T07:07:33.928Z,38.20
2019-01-24T07:10:04.879Z,36.97
2019-01-24T07:12:34.057Z,32.37
2019-01-24T07:15:16.941Z,39.03
2019-01-24T07:20:25.153Z,39.67
2019-01-24T07:22:54.223Z,33.50
2019-01-24T07:25:25.213Z,38.00
2019-01-24T07:27:59.350Z,31.67
2019-01-24T07:34:39.167Z,40.88
2019-01-24T07:37:08.247Z,32.97
2019-01-24T07:42:21.556Z,43.38
2019-01-24T07:50:05.017Z,43.85
2019-01-24T07:55:13.335Z,46.50
2019-01-24T08:00:20.971Z,44.97
2019-01-24T08:02:50.032Z,45.75
2019-01-24T08:05:19.091Z,37.10
2019-01-24T08:07:56.118Z,44.38
2019-01-24T08:13:30.312Z,45.00
2019-01-24T08:16:01.272Z,35.70
2019-01-24T08:18:30.331Z,44.72
2019-01-24T08:20:59.434Z,45.78
2019-01-24T08:26:07.653Z,44.35
2019-01-24T08:28:39.950Z,36.10
2019-01-24T08:34:07.007Z,45.80
2019-01-24T08:36:36.072Z,36.20
2019-01-24T08:39:05.166Z,43.45
2019-01-24T08:41:34.276Z,36.60
2019-01-24T08:44:03.335Z,33.57
2019-01-24T08:46:32.392Z,46.67
2019-01-24T08:49:01.488Z,37.20
2019-01-24T08:51:30.568Z,36.40
2019-01-24T08:53:59.638Z,44.53
2019-01-24T08:56:31.832Z,45.63
2019-01-24T08:59:01.828Z,35.80
2019-01-24T09:01:32.802Z,33.80
2019-01-24T09:04:01.858Z,35.57
2019-01-24T09:06:30.966Z,42.65
2019-01-24T09:09:13.278Z,35.13
2019-01-24T09:16:59.742Z,42.93
2019-01-24T09:19:34.811Z,41.33
2019-01-24T09:22:03.833Z,36.10
2019-01-24T09:24:33.870Z,38.00
2019-01-24T09:27:02.910Z,38.53
2019-01-24T09:29:31.946Z,35.50
2019-01-24T09:32:01.163Z,36.80
2019-01-24T09:34:31.171Z,37.87
2019-01-24T09:37:01.498Z,35.30
2019-01-24T09:39:38.512Z,37.33
2019-01-24T09:42:11.307Z,37.90
2019-01-24T09:44:41.319Z,37.60
2019-01-24T09:54:57.056Z,42.10
2019-01-24T09:57:29.599Z,38.77
2019-01-24T09:59:58.724Z,37.23
2019-01-24T10:02:30.136Z,43.05
2019-01-24T10:04:59.201Z,35.57
2019-01-24T10:07:28.262Z,35.73
2019-01-24T10:09:57.444Z,34.00
2019-01-24T10:12:26.511Z,38.88
2019-01-24T10:14:56.479Z,34.17
2019-01-24T10:17:27.573Z,28.07
2019-01-24T10:19:56.616Z,33.70
2019-01-24T10:22:29.614Z,30.90
2019-01-24T10:24:58.684Z,30.73
2019-01-24T10:27:28.050Z,28.90
2019-01-24T10:29:57.207Z,33.30
2019-01-24T10:32:26.243Z,30.80
2019-01-24T10:34:55.313Z,31.83
2019-01-24T10:37:32.932Z,23.90
2019-01-24T10:40:02.001Z,25.70
2019-01-24T10:42:31.080Z,28.00
2019-01-24T10:45:07.531Z,28.80
2019-01-24T10:50:12.259Z,31.92
2019-01-24T10:52:41.314Z,31.52
2019-01-24T10:55:20.152Z,29.90
2019-01-24T10:57:49.219Z,28.87
2019-01-24T11:00:34.093Z,29.23
2019-01-24T11:03:03.155Z,29.10
2019-01-24T11:05:44.028Z,30.53
2019-01-24T11:10:49.752Z,31.58
2019-01-24T11:13:21.027Z,33.47
2019-01-24T11:18:36.918Z,32.63
2019-01-24T11:21:05.991Z,31.63
2019-01-24T11:23:35.071Z,29.50
2019-01-24T11:26:04.128Z,29.70
2019-01-24T11:31:08.976Z,28.80
2019-01-24T11:33:48.194Z,29.27
2019-01-24T11:36:17.256Z,27.13
2019-01-24T11:38:46.367Z,26.00
2019-01-24T11:41:15.399Z,27.40
2019-01-24T11:46:20.753Z,29.35
2019-01-24T11:48:51.780Z,28.13
2019-01-24T11:51:21.836Z,26.47
2019-01-24T11:53:53.191Z,27.15
2019-01-24T11:56:24.019Z,25.93
2019-01-24T11:58:53.987Z,26.57
2019-01-24T12:01:23.047Z,25.80
2019-01-24T12:03:52.106Z,25.33
2019-01-24T12:06:25.203Z,25.95
2019-01-24T12:08:54.324Z,26.70
2019-01-24T12:11:23.404Z,27.20
2019-01-24T12:13:52.460Z,25.77
2019-01-24T12:16:21.689Z,26.08
2019-01-24T12:18:50.799Z,26.47
2019-01-24T12:21:19.799Z,27.27
2019-01-24T12:23:49.049Z,24.53
2019-01-24T12:26:18.094Z,26.00
2019-01-24T12:28:48.139Z,23.93
2019-01-24T12:31:18.155Z,22.60
2019-01-24T12:36:31.384Z,24.67
2019-01-24T12:39:00.452Z,22.20
2019-01-24T12:44:08.691Z,24.58
2019-01-24T12:46:37.753Z,24.73
2019-01-24T12:49:06.814Z,24.85
2019-01-24T12:51:39.192Z,23.07
2019-01-24T12:54:09.303Z,21.13
2019-01-24T12:56:38.355Z,24.73
2019-01-24T12:59:10.744Z,27.53
2019-01-24T13:01:43.779Z,34.47
2019-01-24T13:04:17.748Z,31.07
2019-01-24T13:06:46.787Z,32.67
2019-01-24T13:09:20.293Z,29.07
2019-01-24T13:11:49.362Z,28.10
2019-01-24T13:14:30.769Z,27.87
2019-01-24T13:16:59.904Z,29.40
2019-01-24T13:22:04.239Z,33.08
2019-01-24T13:27:09.368Z,32.90
2019-01-24T13:29:46.335Z,26.20
2019-01-24T13:32:15.395Z,24.70
2019-01-24T13:34:48.050Z,28.47
2019-01-24T13:37:17.095Z,27.33
2019-01-24T13:39:46.208Z,27.37
2019-01-24T13:42:15.267Z,36.22
2019-01-24T13:44:44.321Z,30.20
2019-01-24T13:47:14.330Z,28.50
2019-01-24T13:49:43.457Z,27.90
2019-01-24T13:52:13.461Z,27.30
2019-01-24T13:54:43.459Z,24.20
2019-01-24T13:59:48.744Z,30.73
2019-01-24T14:02:19.844Z,27.17
2019-01-24T14:04:48.907Z,27.10
2019-01-24T14:07:17.996Z,26.77
2019-01-24T14:09:49.073Z,23.77
2019-01-24T14:12:19.061Z,24.63
2019-01-24T14:14:48.135Z,24.07
2019-01-24T14:17:17.181Z,26.07
2019-01-24T14:19:47.168Z,23.37
2019-01-24T14:22:16.247Z,24.20
2019-01-24T14:24:45.289Z,21.60
2019-01-24T14:27:15.339Z,26.23
2019-01-24T14:29:43.533Z,23.00
2019-01-24T14:34:48.335Z,25.17
2019-01-24T14:37:17.408Z,22.40
2019-01-24T14:42:29.651Z,25.52
2019-01-24T14:45:06.103Z,23.83
2019-01-24T14:47:48.140Z,21.40
2019-01-24T14:52:55.865Z,25.90
2019-01-24T14:55:30.446Z,26.42
2019-01-24T14:57:59.791Z,23.57
2019-01-24T15:00:38.421Z,20.17
2019-01-24T15:03:07.486Z,20.40
2019-01-24T15:05:43.472Z,26.45
2019-01-24T15:08:12.527Z,20.60
2019-01-24T15:10:41.580Z,21.87
2019-01-24T15:13:10.655Z,20.80
2019-01-24T15:18:15.458Z,26.52
2019-01-24T15:20:44.499Z,22.10
2019-01-24T15:23:14.498Z,21.00
2019-01-24T15:25:44.560Z,18.90
2019-01-24T15:28:17.042Z,19.93
2019-01-24T15:30:50.902Z,18.90
2019-01-24T15:33:23.910Z,20.77
2019-01-24T15:35:53.936Z,19.87
2019-01-24T15:38:24.924Z,22.10
2019-01-24T15:40:53.999Z,29.52
2019-01-24T15:43:23.062Z,32.20
2019-01-24T15:45:53.258Z,31.33
2019-01-24T15:48:29.475Z,33.80
2019-01-24T15:50:59.454Z,29.33
2019-01-24T15:53:32.448Z,34.53
2019-01-24T15:56:01.645Z,28.67
2019-01-24T15:58:30.674Z,36.22
2019-01-24T16:00:59.723Z,31.77
2019-01-24T16:03:29.793Z,41.50
2019-01-24T16:08:38.356Z,43.90
2019-01-24T16:11:14.633Z,44.53
2019-01-24T16:16:24.171Z,46.88
2019-01-24T16:18:53.240Z,36.40
2019-01-24T16:21:23.222Z,44.75
2019-01-24T16:23:52.306Z,33.27
2019-01-24T16:26:21.360Z,36.03
2019-01-24T16:28:58.355Z,37.45
2019-01-24T16:31:27.412Z,29.60
2019-01-24T16:33:57.439Z,36.53
2019-01-24T16:36:26.487Z,29.70
2019-01-24T16:41:38.859Z,40.73
2019-01-24T16:44:08.818Z,41.67
2019-01-24T16:46:45.155Z,34.70
2019-01-24T16:49:14.241Z,41.47
2019-01-24T16:54:20.968Z,41.23
2019-01-24T16:56:50.966Z,31.57
2019-01-24T16:59:20.027Z,39.25
2019-01-24T17:01:49.108Z,31.87
2019-01-24T17:04:18.160Z,41.13
2019-01-24T17:06:47.225Z,31.77
2019-01-24T17:09:16.304Z,41.83
2019-01-24T17:11:56.699Z,42.85
2019-01-24T17:14:26.755Z,33.47
2019-01-24T17:17:03.012Z,43.75
2019-01-24T17:24:46.724Z,42.25
2019-01-24T17:27:15.773Z,43.28
2019-01-24T17:29:46.761Z,32.77
2019-01-24T17:32:15.839Z,41.85
2019-01-24T17:35:01.014Z,33.07
2019-01-24T17:37:30.067Z,41.35
2019-01-24T17:39:59.132Z,40.28
2019-01-24T17:42:28.183Z,34.20
2019-01-24T17:45:04.847Z,40.30
2019-01-24T17:47:34.883Z,31.30
2019-01-24T17:50:03.990Z,39.10
2019-01-24T17:52:33.068Z,40.78
2019-01-24T17:55:02.190Z,32.50
2019-01-24T17:57:31.245Z,36.75
2019-01-24T18:00:00.296Z,36.97
2019-01-24T18:02:29.363Z,29.37
2019-01-24T18:05:02.572Z,35.65
2019-01-24T18:07:31.633Z,31.10
2019-01-24T18:15:25.902Z,35.70
2019-01-24T18:17:56.114Z,29.27
2019-01-24T18:20:25.200Z,37.30
2019-01-24T18:22:59.545Z,37.60
2019-01-24T18:25:28.607Z,33.17
2019-01-24T18:27:58.628Z,38.03
2019-01-24T18:30:27.951Z,33.07
2019-01-24T18:32:57.968Z,37.50
2019-01-24T18:35:50.070Z,38.40
2019-01-24T18:38:19.156Z,42.55
2019-01-24T18:40:51.767Z,43.58
2019-01-24T18:43:20.866Z,35.57
2019-01-24T18:46:00.300Z,42.97
2019-01-24T18:51:07.039Z,42.83
2019-01-24T18:56:18.766Z,44.40
2019-01-24T19:04:08.107Z,44.07
2019-01-24T19:06:38.149Z,45.72
2019-01-24T19:09:07.259Z,37.40
2019-01-24T19:11:38.279Z,45.67
2019-01-24T19:14:07.334Z,34.87
2019-01-24T19:16:48.815Z,45.22
2019-01-24T19:19:17.934Z,36.27
2019-01-24T19:24:35.604Z,43.80
2019-01-24T19:27:06.583Z,46.80
2019-01-24T19:29:37.564Z,44.83
2019-01-24T19:32:06.624Z,36.70
2019-01-24T19:37:11.376Z,44.85
2019-01-24T19:39:40.438Z,45.90
2019-01-24T19:42:09.624Z,36.23
2019-01-24T19:44:54.317Z,45.35
2019-01-24T19:47:23.386Z,47.22
2019-01-24T19:55:14.267Z,39.65
2019-01-24T19:57:43.329Z,27.93
2019-01-24T20:00:14.966Z,35.30
2019-01-24T20:02:51.214Z,39.10
2019-01-24T20:05:20.308Z,31.70
2019-01-24T20:07:51.286Z,39.15
2019-01-24T20:10:21.234Z,41.97
2019-01-24T20:12:50.335Z,33.77
2019-01-24T20:15:19.417Z,40.83
2019-01-24T20:17:49.655Z,42.80
2019-01-24T20:20:18.674Z,33.80
2019-01-24T20:22:47.831Z,41.83
2019-01-24T20:25:18.416Z,35.00
2019-01-24T20:27:52.456Z,42.73
2019-01-24T20:30:22.344Z,34.83
2019-01-24T20:35:47.836Z,40.58
2019-01-24T20:40:57.303Z,31.85
2019-01-24T20:43:35.317Z,30.98
2019-01-24T20:48:39.227Z,34.38
2019-01-24T20:51:12.417Z,31.10
2019-01-24T20:53:41.771Z,35.75
2019-01-24T20:56:21.545Z,35.58
2019-01-24T20:58:54.263Z,28.77
2019-01-24T21:01:24.351Z,31.58
2019-01-24T21:06:35.805Z,32.13
2019-01-24T21:09:22.035Z,32.13
2019-01-24T21:12:02.211Z,27.97
2019-01-24T21:14:36.766Z,33.42
2019-01-24T21:19:45.175Z,35.63
2019-01-24T21:24:53.561Z,31.80
2019-01-24T21:27:22.639Z,27.53
2019-01-24T21:29:51.712Z,34.60
2019-01-24T21:32:20.813Z,29.03
2019-01-24T21:34:49.967Z,36.20
2019-01-24T21:37:19.039Z,33.63
2019-01-24T21:39:48.175Z,30.60
2019-01-24T21:42:18.220Z,35.00
2019-01-24T21:44:47.269Z,36.05
2019-01-24T21:47:16.380Z,28.70
2019-01-24T21:49:45.514Z,35.08
2019-01-24T21:52:28.537Z,37.27
2019-01-24T21:55:19.440Z,30.17
2019-01-24T21:57:48.544Z,37.38
2019-01-24T22:00:19.382Z,38.42
2019-01-24T22:02:48.625Z,32.87
2019-01-24T22:05:28.672Z,37.90
2019-01-24T22:10:52.126Z,38.80
2019-01-24T22:13:42.314Z,29.50
2019-01-24T22:16:30.267Z,40.40
2019-01-24T22:21:34.690Z,39.95
2019-01-24T22:24:03.957Z,32.10
2019-01-24T22:26:33.956Z,36.78
2019-01-24T22:31:39.184Z,38.70
2019-01-24T22:34:27.066Z,37.30
2019-01-24T22:39:43.085Z,36.25
2019-01-24T22:42:22.027Z,30.60
2019-01-24T22:44:51.108Z,36.05
2019-01-24T22:49:59.587Z,38.65
2019-01-24T22:52:28.692Z,29.77
2019-01-24T22:58:40.820Z,35.65
2019-01-24T23:01:15.676Z,32.60
2019-01-24T23:03:44.743Z,35.33
2019-01-24T23:06:17.322Z,36.70
2019-01-24T23:08:46.399Z,29.57
2019-01-24T23:13:57.768Z,36.92
2019-01-24T23:16:26.924Z,28.80
2019-01-24T23:18:56.026Z,34.15
2019-01-24T23:21:26.192Z,30.43
2019-01-24T23:26:34.392Z,37.08
2019-01-24T23:31:46.032Z,33.13
2019-01-24T23:34:15.088Z,34.22
2019-01-24T23:36:44.154Z,36.30
2019-01-24T23:39:24.042Z,37.42
2019-01-24T23:44:34.891Z,36.33
2019-01-24T23:47:05.345Z,29.63
2019-01-24T23:49:34.427Z,36.13
2019-01-24T23:54:42.230Z,38.22
2019-01-24T23:57:11.287Z,31.00
2019-01-24T23:59:40.344Z,38.65
